Overview Statistics Trail Chart Weather Telemetry Raw packets
 

This is the latest recevied weather packets stored in our database for station/object K1NOT-WX. If no packets are shown the sender has not sent any weather packets the latest 10 day(s).

<< 18 19 20 21 22 23 24 >>
Time Temp. Humidity Pressure Rain* Wind** Luminosity Snow
1777331533 13.89° C 72% 1008.5 hPa 0 mm - - -
1777330633 13.33° C 73% 1008.1 hPa 0 mm - - -
1777329733 13.33° C 73% 1008.5 hPa 0 mm - - -
1777328833 12.78° C 74% 1008.1 hPa 0 mm - - -
1777327933 12.78° C 75% 1008.5 hPa 0 mm - - -
1777327033 13.33° C 73% 1008.1 hPa 0 mm - - -
1777326133 12.78° C 75% 1008.1 hPa 0 mm - - -
1777325233 12.78° C 74% 1007.8 hPa 0 mm - - -
1777324333 13.33° C 72% 1008.1 hPa 0 mm - - -
1777323433 12.78° C 74% 1008.1 hPa 0 mm - - -
1777322533 12.22° C 77% 1008.1 hPa 0 mm - - -
1777321633 12.22° C 77% 1008.1 hPa 0 mm - - -
1777320732 11.67° C 78% 1008.1 hPa 0 mm - - -
1777319832 11.67° C 80% 1008.1 hPa 0 mm - - -
1777318932 11.67° C 80% 1007.8 hPa 0 mm - - -
1777318032 11.11° C 81% 1008.1 hPa 0 mm - - -
1777317132 11.11° C 83% 1008.5 hPa 0 mm - - -
1777316232 11.11° C 81% 1008.5 hPa 0 mm - - -
1777315332 11.11° C 82% 1008.1 hPa 0 mm - - -
1777314432 10.56° C 85% 1008.1 hPa 0 mm - - -
1777313532 10° C 85% 1007.8 hPa 0 mm - - -
1777312632 10.56° C 84% 1008.1 hPa 0 mm - - -
1777311732 10° C 84% 1007.4 hPa 0 mm - - -
1777310832 10° C 85% 1007.8 hPa 0 mm - - -
1777309932 10° C 83% 1007.8 hPa 0 mm - - -

* Rain latest hour (hover to see other rain measurements)
** Current wind speed in m/s (hover to see current wind gust speed)